createdAt,value
2022-11-05T00:00:36.680Z,7.15
2022-11-05T00:03:03.648Z,8.50
2022-11-05T00:05:31.082Z,10.45
2022-11-05T00:07:59.763Z,8.55
2022-11-05T00:10:28.755Z,6.47
2022-11-05T00:12:57.692Z,6.18
2022-11-05T00:15:24.316Z,6.90
2022-11-05T00:17:52.599Z,5.90
2022-11-05T00:20:19.219Z,7.15
2022-11-05T00:22:45.816Z,6.68
2022-11-05T00:25:15.056Z,7.95
2022-11-05T00:27:41.769Z,6.38
2022-11-05T00:30:09.498Z,8.30
2022-11-05T00:32:36.224Z,4.55
2022-11-05T00:35:05.160Z,8.48
2022-11-05T00:37:31.872Z,6.18
2022-11-05T00:39:58.543Z,7.50
2022-11-05T00:42:25.228Z,10.77
2022-11-05T00:44:51.867Z,8.07
2022-11-05T00:47:18.538Z,4.60
2022-11-05T00:49:45.171Z,8.80
2022-11-05T00:52:13.244Z,11.70
2022-11-05T00:54:39.877Z,18.08
2022-11-05T00:57:06.560Z,7.75
2022-11-05T00:59:33.182Z,14.57
2022-11-05T01:01:59.956Z,6.70
2022-11-05T01:04:26.706Z,7.70
2022-11-05T01:06:53.369Z,12.18
2022-11-05T01:09:21.432Z,6.40
2022-11-05T01:11:48.085Z,9.90
2022-11-05T01:14:15.401Z,7.93
2022-11-05T01:16:42.920Z,8.48
2022-11-05T01:19:11.395Z,11.55
2022-11-05T01:21:38.191Z,7.35
2022-11-05T01:24:05.356Z,12.70
2022-11-05T01:26:33.472Z,6.28
2022-11-05T01:29:00.233Z,4.22
2022-11-05T01:31:27.072Z,6.78
2022-11-05T01:33:53.822Z,7.35
2022-11-05T01:36:20.734Z,9.05
2022-11-05T01:38:47.487Z,8.75
2022-11-05T01:41:14.193Z,7.93
2022-11-05T01:43:50.392Z,8.45
2022-11-05T01:46:19.706Z,10.57
2022-11-05T01:48:51.304Z,7.47
2022-11-05T01:51:22.501Z,6.13
2022-11-05T01:53:52.101Z,10.00
2022-11-05T01:56:25.040Z,6.57
2022-11-05T01:58:56.737Z,8.82
2022-11-05T02:01:23.817Z,7.00
2022-11-05T02:03:55.042Z,4.55
2022-11-05T02:06:21.906Z,10.35
2022-11-05T02:08:55.860Z,8.77
2022-11-05T02:11:22.750Z,14.65
2022-11-05T02:13:50.131Z,6.25
2022-11-05T02:16:27.525Z,5.85
2022-11-05T02:19:02.044Z,9.25
2022-11-05T02:21:53.089Z,10.73
2022-11-05T02:24:53.637Z,9.05
2022-11-05T02:27:27.573Z,12.45
2022-11-05T02:30:07.234Z,10.35
2022-11-05T02:32:54.584Z,7.68
2022-11-05T02:35:34.873Z,16.85
2022-11-05T02:38:08.354Z,7.95
2022-11-05T02:40:44.624Z,8.80
2022-11-05T02:43:21.384Z,8.60
2022-11-05T02:46:00.009Z,12.65
2022-11-05T02:48:35.847Z,7.53
2022-11-05T02:51:12.112Z,6.25
2022-11-05T02:53:45.205Z,10.50
2022-11-05T02:56:18.086Z,3.90
2022-11-05T02:58:44.938Z,6.45
2022-11-05T03:01:12.220Z,6.20
2022-11-05T03:03:42.606Z,8.55
2022-11-05T03:06:25.250Z,11.93
2022-11-05T03:09:10.607Z,5.82
2022-11-05T03:11:45.855Z,5.80
2022-11-05T03:14:22.484Z,7.20
2022-11-05T03:16:58.420Z,4.57
2022-11-05T03:19:35.196Z,9.15
2022-11-05T03:22:08.037Z,13.18
2022-11-05T03:24:38.535Z,14.15
2022-11-05T03:27:09.882Z,12.23
2022-11-05T03:29:42.399Z,6.40
2022-11-05T03:32:10.934Z,9.77
2022-11-05T03:34:45.567Z,7.32
2022-11-05T03:37:12.704Z,6.07
2022-11-05T03:39:43.596Z,14.57
2022-11-05T03:42:15.494Z,5.95
2022-11-05T03:44:46.126Z,8.73
2022-11-05T03:47:19.464Z,9.75
2022-11-05T03:49:55.678Z,6.47
2022-11-05T03:52:48.731Z,9.60
2022-11-05T03:55:16.125Z,9.60
2022-11-05T03:57:50.571Z,5.40
2022-11-05T04:00:17.211Z,3.38
2022-11-05T04:02:44.013Z,3.67
2022-11-05T04:05:12.507Z,9.13
2022-11-05T04:07:39.141Z,9.75
2022-11-05T04:10:06.400Z,5.82
2022-11-05T04:12:33.321Z,18.17
2022-11-05T04:15:00.119Z,9.30
2022-11-05T04:17:26.698Z,4.25
2022-11-05T04:19:53.362Z,10.23
2022-11-05T04:22:21.772Z,5.22
2022-11-05T04:24:48.434Z,7.45
2022-11-05T04:27:15.069Z,9.68
2022-11-05T04:29:41.718Z,3.75
2022-11-05T04:32:08.394Z,3.75
2022-11-05T04:34:35.056Z,5.35
2022-11-05T04:37:01.809Z,3.10
2022-11-05T04:39:30.020Z,6.43
2022-11-05T04:41:56.698Z,5.85
2022-11-05T04:44:23.382Z,2.90
2022-11-05T04:46:50.047Z,4.20
2022-11-05T04:49:16.682Z,3.60
2022-11-05T04:51:43.850Z,4.90
2022-11-05T04:54:10.721Z,3.97
2022-11-05T04:56:38.791Z,3.92
2022-11-05T04:59:05.512Z,6.30
2022-11-05T05:01:32.490Z,4.70
2022-11-05T05:03:59.219Z,3.75
2022-11-05T05:06:25.933Z,4.28
2022-11-05T05:08:52.577Z,3.05
2022-11-05T05:11:20.881Z,4.18
2022-11-05T05:13:49.390Z,5.22
2022-11-05T05:16:19.353Z,3.28
2022-11-05T05:18:46.685Z,3.85
2022-11-05T05:21:13.427Z,8.45
2022-11-05T05:23:40.072Z,3.28
2022-11-05T05:26:06.817Z,6.00
2022-11-05T05:28:33.617Z,8.23
2022-11-05T05:31:02.106Z,2.13
2022-11-05T05:33:28.809Z,3.30
2022-11-05T05:35:57.684Z,5.30
2022-11-05T05:38:24.512Z,2.53
2022-11-05T05:40:51.910Z,4.22
2022-11-05T05:43:18.583Z,6.50
2022-11-05T05:45:45.148Z,6.28
2022-11-05T05:48:13.179Z,2.90
2022-11-05T05:50:39.829Z,6.88
2022-11-05T05:53:06.473Z,7.15
2022-11-05T05:55:33.364Z,5.78
2022-11-05T05:57:59.998Z,3.58
2022-11-05T06:00:26.709Z,7.18
2022-11-05T06:02:55.740Z,6.43
2022-11-05T06:05:23.803Z,6.78
2022-11-05T06:07:55.817Z,5.40
2022-11-05T06:10:22.602Z,3.45
2022-11-05T06:12:49.385Z,4.07
2022-11-05T06:15:16.287Z,7.40
2022-11-05T06:17:43.240Z,5.25
2022-11-05T06:20:10.912Z,5.25
2022-11-05T06:22:39.493Z,3.70
2022-11-05T06:25:07.240Z,6.90
2022-11-05T06:27:34.770Z,5.07
2022-11-05T06:30:01.502Z,2.78
2022-11-05T06:32:28.124Z,6.25
2022-11-05T06:34:54.758Z,4.15
2022-11-05T06:37:21.435Z,2.72
2022-11-05T06:39:49.518Z,5.07
2022-11-05T06:42:18.774Z,3.92
2022-11-05T06:44:46.309Z,4.43
2022-11-05T06:47:13.069Z,4.03
2022-11-05T06:49:39.732Z,6.13
2022-11-05T06:52:06.471Z,6.43
2022-11-05T06:54:33.119Z,5.28
2022-11-05T06:57:01.256Z,9.45
2022-11-05T06:59:27.930Z,2.80
2022-11-05T07:01:54.631Z,3.50
2022-11-05T07:04:21.500Z,7.78
2022-11-05T07:06:48.319Z,4.13
2022-11-05T07:09:15.101Z,3.55
2022-11-05T07:11:41.992Z,7.85
2022-11-05T07:14:10.362Z,5.00
2022-11-05T07:16:37.050Z,3.20
2022-11-05T07:19:03.744Z,8.50
2022-11-05T07:21:30.435Z,3.13
2022-11-05T07:23:57.156Z,4.53
2022-11-05T07:26:23.889Z,8.15
2022-11-05T07:28:50.553Z,5.25
2022-11-05T07:31:18.683Z,2.35
2022-11-05T07:33:45.398Z,5.72
2022-11-05T07:36:12.207Z,3.28
2022-11-05T07:38:38.970Z,4.60
2022-11-05T07:41:05.702Z,5.25
2022-11-05T07:43:32.510Z,6.75
2022-11-05T07:46:00.284Z,4.13
2022-11-05T07:48:31.014Z,6.00
2022-11-05T07:50:57.713Z,3.63
2022-11-05T07:53:24.379Z,8.30
2022-11-05T07:55:51.058Z,9.93
2022-11-05T07:58:17.800Z,3.72
2022-11-05T08:00:44.566Z,6.90
2022-11-05T08:03:14.069Z,4.32
2022-11-05T08:05:44.211Z,2.35
2022-11-05T08:08:12.805Z,7.10
2022-11-05T08:10:40.497Z,3.43
2022-11-05T08:13:09.060Z,6.82
2022-11-05T08:15:36.247Z,2.97
2022-11-05T08:18:05.174Z,11.82
2022-11-05T08:20:32.771Z,7.50
2022-11-05T08:23:01.247Z,4.78
2022-11-05T08:25:28.129Z,3.92
2022-11-05T08:27:56.063Z,3.95
2022-11-05T08:30:22.985Z,6.68
2022-11-05T08:32:49.639Z,5.72
2022-11-05T08:35:16.531Z,11.35
2022-11-05T08:37:43.333Z,3.85
2022-11-05T08:40:12.344Z,4.90
2022-11-05T08:42:39.086Z,3.65
2022-11-05T08:45:06.829Z,3.35
2022-11-05T08:47:33.668Z,5.53
2022-11-05T08:50:02.398Z,3.72
2022-11-05T08:52:29.059Z,4.53
2022-11-05T08:55:03.946Z,4.13
2022-11-05T08:57:32.298Z,10.88
2022-11-05T08:59:58.968Z,8.00
2022-11-05T09:02:25.718Z,5.47
2022-11-05T09:04:52.500Z,5.03
2022-11-05T09:07:19.144Z,5.85
2022-11-05T09:09:45.859Z,8.15
2022-11-05T09:12:13.247Z,11.23
2022-11-05T09:14:41.370Z,7.60
2022-11-05T09:17:14.525Z,3.47
2022-11-05T09:19:47.549Z,6.82
2022-11-05T09:22:52.923Z,5.07
2022-11-05T09:25:29.713Z,9.45
2022-11-05T09:28:08.326Z,9.43
2022-11-05T09:30:40.267Z,4.37
2022-11-05T09:33:16.994Z,6.07
2022-11-05T09:35:49.838Z,8.15
2022-11-05T09:38:16.459Z,4.18
2022-11-05T09:41:04.302Z,5.32
2022-11-05T09:43:36.663Z,8.63
2022-11-05T09:46:11.135Z,5.30
2022-11-05T09:48:39.192Z,4.55
2022-11-05T09:51:07.132Z,7.03
2022-11-05T09:53:41.781Z,3.65
2022-11-05T09:56:20.363Z,6.82
2022-11-05T09:58:56.437Z,7.43
2022-11-05T10:01:35.839Z,7.57
2022-11-05T10:06:46.795Z,5.97
2022-11-05T10:09:19.965Z,7.53
2022-11-05T10:11:50.959Z,9.48
2022-11-05T10:14:22.933Z,5.03
2022-11-05T10:16:56.425Z,5.15
2022-11-05T10:19:27.013Z,3.35
2022-11-05T10:22:06.528Z,5.55
2022-11-05T10:24:35.146Z,4.80
2022-11-05T10:27:03.079Z,5.78
2022-11-05T10:29:34.951Z,7.25
2022-11-05T10:32:05.842Z,7.50
2022-11-05T10:34:36.018Z,15.95
2022-11-05T10:37:03.153Z,10.25
2022-11-05T10:39:32.759Z,5.80
2022-11-05T10:42:16.088Z,6.18
2022-11-05T10:44:47.131Z,12.10
2022-11-05T10:47:47.053Z,15.07
2022-11-05T10:50:18.116Z,12.55
2022-11-05T10:52:55.698Z,7.15
2022-11-05T10:55:36.878Z,5.35
2022-11-05T10:58:18.261Z,5.45
2022-11-05T11:00:46.425Z,8.63
2022-11-05T11:03:35.009Z,7.10
2022-11-05T11:06:04.227Z,5.03
2022-11-05T11:08:35.130Z,11.05
2022-11-05T11:11:24.622Z,7.85
2022-11-05T11:14:01.089Z,9.23
2022-11-05T11:16:33.435Z,12.15
2022-11-05T11:19:22.467Z,7.10
2022-11-05T11:22:18.206Z,19.67
2022-11-05T11:24:47.273Z,9.75
2022-11-05T11:27:16.795Z,11.07
2022-11-05T11:32:18.461Z,5.20
2022-11-05T11:34:48.837Z,4.38
2022-11-05T11:37:22.856Z,13.75
2022-11-05T11:39:56.405Z,5.72
2022-11-05T11:42:29.195Z,5.65
2022-11-05T11:44:58.528Z,5.80
2022-11-05T11:47:28.733Z,6.07
2022-11-05T11:50:02.684Z,7.30
2022-11-05T11:52:32.672Z,7.65
2022-11-05T11:55:23.405Z,9.48
2022-11-05T11:57:55.201Z,8.88
2022-11-05T12:00:24.821Z,9.15
2022-11-05T12:06:16.610Z,8.73
2022-11-05T12:08:59.320Z,7.35
2022-11-05T12:11:39.753Z,13.02
2022-11-05T12:14:20.121Z,9.80
2022-11-05T12:17:09.908Z,9.05
2022-11-05T12:19:53.131Z,7.47
2022-11-05T12:22:29.405Z,8.00
2022-11-05T12:25:11.200Z,9.70
2022-11-05T12:27:49.253Z,8.07
2022-11-05T12:30:17.832Z,8.10
2022-11-05T12:33:04.285Z,10.13
2022-11-05T12:35:47.360Z,10.43
2022-11-05T12:38:26.433Z,15.15
2022-11-05T12:41:10.784Z,9.85
2022-11-05T12:43:50.696Z,12.23
2022-11-05T12:46:29.058Z,8.48
2022-11-05T12:49:20.932Z,18.77
2022-11-05T12:52:02.454Z,9.63
2022-11-05T12:54:43.885Z,17.27
2022-11-05T12:57:14.014Z,10.05
2022-11-05T12:59:47.298Z,11.05
2022-11-05T13:02:22.095Z,11.07
2022-11-05T13:04:53.377Z,11.68
2022-11-05T13:07:27.883Z,11.07
2022-11-05T13:09:59.566Z,13.45
2022-11-05T13:12:35.240Z,13.48
2022-11-05T13:15:07.880Z,11.75
2022-11-05T13:17:42.061Z,20.98
2022-11-05T13:20:17.788Z,15.75
2022-11-05T13:22:46.605Z,13.02
2022-11-05T13:25:20.115Z,20.33
2022-11-05T13:27:58.350Z,14.85
2022-11-05T13:30:29.544Z,16.80
2022-11-05T13:33:04.961Z,14.02
2022-11-05T13:35:41.486Z,13.45
2022-11-05T13:38:14.909Z,15.13
2022-11-05T13:40:57.491Z,12.07
2022-11-05T13:43:41.340Z,11.18
2022-11-05T13:46:22.538Z,11.38
2022-11-05T13:49:05.358Z,10.73
2022-11-05T13:51:54.001Z,13.63
2022-11-05T13:54:57.520Z,14.57
2022-11-05T13:57:50.397Z,12.63
2022-11-05T14:00:22.043Z,9.55
2022-11-05T14:02:53.081Z,12.13
2022-11-05T14:05:27.686Z,12.75
2022-11-05T14:07:55.683Z,12.13
2022-11-05T14:10:31.359Z,12.07
2022-11-05T14:13:14.075Z,11.05
2022-11-05T14:15:57.305Z,13.23
2022-11-05T14:18:43.295Z,11.15
2022-11-05T14:21:49.207Z,12.05
2022-11-05T14:24:26.567Z,11.63
2022-11-05T14:27:30.703Z,12.43
2022-11-05T14:30:30.427Z,14.68
2022-11-05T14:33:13.934Z,14.05
2022-11-05T14:35:43.388Z,11.93
2022-11-05T14:38:20.313Z,13.27
2022-11-05T14:40:47.897Z,15.50
2022-11-05T14:43:21.853Z,11.93
2022-11-05T14:45:57.188Z,12.30
2022-11-05T14:48:36.477Z,16.52
2022-11-05T14:51:16.650Z,16.42
2022-11-05T14:53:43.467Z,12.48
2022-11-05T14:56:14.040Z,12.82
2022-11-05T14:58:42.679Z,12.50
2022-11-05T15:01:30.077Z,15.23
2022-11-05T15:04:05.849Z,13.95
2022-11-05T15:06:34.407Z,13.38
2022-11-05T15:09:15.490Z,13.60
2022-11-05T15:11:49.993Z,11.77
2022-11-05T15:14:22.761Z,11.98
2022-11-05T15:17:17.264Z,13.65
2022-11-05T15:19:46.938Z,11.57
2022-11-05T15:22:25.840Z,10.90
2022-11-05T15:24:52.931Z,22.40
2022-11-05T15:27:27.743Z,11.68
2022-11-05T15:30:05.029Z,11.48
2022-11-05T15:32:37.348Z,8.60
2022-11-05T15:35:20.456Z,16.25
2022-11-05T15:37:54.577Z,15.55
2022-11-05T15:40:26.350Z,11.43
2022-11-05T15:43:15.234Z,10.43
2022-11-05T15:45:42.317Z,13.55
2022-11-05T15:48:18.164Z,11.35
2022-11-05T15:50:48.816Z,13.85
2022-11-05T15:56:26.297Z,15.48
2022-11-05T15:58:55.796Z,10.65
2022-11-05T16:04:21.628Z,18.55
2022-11-05T16:06:54.569Z,11.05
2022-11-05T16:09:23.478Z,12.25
2022-11-05T16:12:14.065Z,15.07
2022-11-05T16:15:01.141Z,14.00
2022-11-05T16:17:32.423Z,13.95
2022-11-05T16:19:59.338Z,10.50
2022-11-05T16:22:44.726Z,14.23
2022-11-05T16:25:22.711Z,21.48
2022-11-05T16:27:51.669Z,15.88
2022-11-05T16:30:19.829Z,16.42
2022-11-05T16:33:13.574Z,12.55
2022-11-05T16:35:47.814Z,9.73
2022-11-05T16:38:17.786Z,13.93
2022-11-05T16:40:44.473Z,13.32
2022-11-05T16:43:19.140Z,15.00
2022-11-05T16:45:53.146Z,12.68
2022-11-05T16:48:20.039Z,10.65
2022-11-05T16:50:47.742Z,10.20
2022-11-05T16:53:19.118Z,12.35
2022-11-05T16:55:46.559Z,17.27
2022-11-05T16:58:20.634Z,16.45
2022-11-05T17:00:48.557Z,11.90
2022-11-05T17:03:15.407Z,8.95
2022-11-05T17:05:42.413Z,8.95
2022-11-05T17:08:09.354Z,16.40
2022-11-05T17:10:37.595Z,15.52
2022-11-05T17:13:04.260Z,12.25
2022-11-05T17:15:32.849Z,12.13
2022-11-05T17:17:59.633Z,17.90
2022-11-05T17:20:36.512Z,11.43
2022-11-05T17:23:07.266Z,12.70
2022-11-05T17:25:37.098Z,26.10
2022-11-05T17:28:06.044Z,28.55
2022-11-05T17:30:35.109Z,28.98
2022-11-05T17:33:01.965Z,36.03
2022-11-05T17:35:54.355Z,46.63
2022-11-05T17:38:21.898Z,41.70
2022-11-05T17:40:57.083Z,35.92
2022-11-05T17:43:25.944Z,35.00
2022-11-05T17:45:53.537Z,29.40
2022-11-05T17:48:21.005Z,25.85
2022-11-05T17:50:49.865Z,32.05
2022-11-05T17:53:28.708Z,26.45
2022-11-05T17:55:56.067Z,35.17
2022-11-05T17:58:22.807Z,34.92
2022-11-05T18:01:00.030Z,28.80
2022-11-05T18:03:28.674Z,32.78
2022-11-05T18:06:01.042Z,35.90
2022-11-05T18:08:27.787Z,37.63
2022-11-05T18:10:54.528Z,48.10
2022-11-05T18:13:21.301Z,35.72
2022-11-05T18:15:51.733Z,48.40
2022-11-05T18:18:20.559Z,50.03
2022-11-05T18:20:50.553Z,54.20
2022-11-05T18:23:21.668Z,44.70
2022-11-05T18:25:51.415Z,30.45
2022-11-05T18:28:22.383Z,37.33
2022-11-05T18:30:51.313Z,28.73
2022-11-05T18:33:19.696Z,34.72
2022-11-05T18:35:48.113Z,50.17
2022-11-05T18:38:14.864Z,43.83
2022-11-05T18:40:51.875Z,42.92
2022-11-05T18:43:21.673Z,51.15
2022-11-05T18:45:54.903Z,40.17
2022-11-05T18:48:23.289Z,43.08
2022-11-05T18:50:50.010Z,43.80
2022-11-05T18:53:24.915Z,55.50
2022-11-05T18:55:54.319Z,67.22
2022-11-05T18:58:21.366Z,69.05
2022-11-05T19:01:06.437Z,35.42
2022-11-05T19:03:34.963Z,44.15
2022-11-05T19:06:03.556Z,51.40
2022-11-05T19:08:33.521Z,55.37
2022-11-05T19:11:06.737Z,37.45
2022-11-05T19:13:38.103Z,20.52
2022-11-05T19:16:07.643Z,23.17
2022-11-05T19:21:20.946Z,13.77
2022-11-05T19:23:48.210Z,9.30
2022-11-05T19:26:17.284Z,10.30
2022-11-05T19:28:47.255Z,12.77
2022-11-05T19:31:18.664Z,10.50
2022-11-05T19:33:51.259Z,16.70
2022-11-05T19:36:20.310Z,6.45
2022-11-05T19:38:49.158Z,9.43
2022-11-05T19:41:19.189Z,10.45
2022-11-05T19:43:46.017Z,10.93
2022-11-05T19:46:15.782Z,9.30
2022-11-05T19:48:43.549Z,9.77
2022-11-05T19:51:16.408Z,8.48
2022-11-05T19:53:52.761Z,5.88
2022-11-05T19:56:21.341Z,6.97
2022-11-05T19:58:48.316Z,7.43
2022-11-05T20:01:20.443Z,9.30
2022-11-05T20:03:50.447Z,6.82
2022-11-05T20:06:21.514Z,5.68
2022-11-05T20:09:19.525Z,7.15
2022-11-05T20:11:36.203Z,6.93
2022-11-05T20:14:03.728Z,5.60
2022-11-05T20:16:32.213Z,7.05
2022-11-05T20:18:59.088Z,8.35
2022-11-05T20:21:27.278Z,8.25
2022-11-05T20:23:56.152Z,6.88
2022-11-05T20:26:23.026Z,4.55
2022-11-05T20:28:49.846Z,5.03
2022-11-05T20:31:32.802Z,4.75
2022-11-05T20:34:14.094Z,4.68
2022-11-05T20:36:43.358Z,6.00
2022-11-05T20:39:10.768Z,2.90
2022-11-05T20:41:44.667Z,7.68
2022-11-05T20:44:11.477Z,2.67
2022-11-05T20:46:38.539Z,2.92
2022-11-05T20:49:25.009Z,4.70
2022-11-05T20:52:07.330Z,7.43
2022-11-05T20:55:11.244Z,6.32
2022-11-05T20:57:38.104Z,6.90
2022-11-05T21:00:06.542Z,7.93
2022-11-05T21:02:34.261Z,5.75
2022-11-05T21:05:01.409Z,10.52
2022-11-05T21:07:29.734Z,6.68
2022-11-05T21:09:56.866Z,2.95
2022-11-05T21:12:23.723Z,4.32
2022-11-05T21:14:52.414Z,4.03
2022-11-05T21:17:19.307Z,3.10
2022-11-05T21:19:46.114Z,2.83
2022-11-05T21:22:49.240Z,4.15
2022-11-05T21:25:29.081Z,5.70
2022-11-05T21:28:19.679Z,7.32
2022-11-05T21:30:54.583Z,3.88
2022-11-05T21:33:26.293Z,6.18
2022-11-05T21:35:53.044Z,4.45
2022-11-05T21:38:21.151Z,3.28
2022-11-05T21:40:47.880Z,3.90
2022-11-05T21:43:14.672Z,3.95
2022-11-05T21:45:42.839Z,7.15
2022-11-05T21:48:10.287Z,3.72
2022-11-05T21:50:38.843Z,5.18
2022-11-05T21:53:05.607Z,7.18
2022-11-05T21:55:33.918Z,5.45
2022-11-05T21:58:04.771Z,4.97
2022-11-05T22:00:31.742Z,2.90
2022-11-05T22:02:58.832Z,4.88
2022-11-05T22:05:26.060Z,3.05
2022-11-05T22:07:53.159Z,6.18
2022-11-05T22:10:20.282Z,3.70
2022-11-05T22:12:48.768Z,3.83
2022-11-05T22:15:15.986Z,4.22
2022-11-05T22:17:47.233Z,4.65
2022-11-05T22:20:15.224Z,3.35
2022-11-05T22:22:42.388Z,4.15
2022-11-05T22:25:09.705Z,5.43
2022-11-05T22:27:36.942Z,5.20
2022-11-05T22:30:06.736Z,4.20
2022-11-05T22:32:34.201Z,7.82
2022-11-05T22:35:01.292Z,5.50
2022-11-05T22:37:28.168Z,4.22
2022-11-05T22:39:55.568Z,4.47
2022-11-05T22:42:22.771Z,4.05
2022-11-05T22:44:49.849Z,3.15
2022-11-05T22:47:18.360Z,4.95
2022-11-05T22:49:45.493Z,4.78
2022-11-05T22:52:12.484Z,6.43
2022-11-05T22:54:39.691Z,4.38
2022-11-05T22:57:16.171Z,4.93
2022-11-05T22:59:42.858Z,4.15
2022-11-05T23:02:10.195Z,5.75
2022-11-05T23:04:38.821Z,4.75
2022-11-05T23:07:05.634Z,4.07
2022-11-05T23:09:34.574Z,4.35
2022-11-05T23:12:02.199Z,8.02
2022-11-05T23:14:29.681Z,11.38
2022-11-05T23:16:56.344Z,7.85
2022-11-05T23:19:23.579Z,6.95
2022-11-05T23:21:51.779Z,5.68
2022-11-05T23:24:18.502Z,5.00
2022-11-05T23:26:45.257Z,9.75
2022-11-05T23:29:11.925Z,7.45
2022-11-05T23:31:38.700Z,4.30
2022-11-05T23:34:05.451Z,9.40
2022-11-05T23:36:32.273Z,9.90
2022-11-05T23:39:00.450Z,4.72
2022-11-05T23:41:27.620Z,6.13
2022-11-05T23:43:54.659Z,5.78
2022-11-05T23:46:21.413Z,3.70
2022-11-05T23:48:48.159Z,5.95
2022-11-05T23:51:14.868Z,2.97
2022-11-05T23:53:41.518Z,2.90
2022-11-05T23:56:12.359Z,3.13
2022-11-05T23:58:40.410Z,5.88
